Aviation Digital Data Service (ADDS)

Output produced by METARs form (2146 UTC 21 May 2022)
found at http://www.aviationweather.gov/metar/data/
 
LHDC 212115Z AUTO 35005KT 320V020 CAVOK 19/09 Q1014 NOSIG
LHDC 212045Z AUTO 32006KT 280V350 CAVOK 19/09 Q1013 NOSIG
LHDC 212015Z AUTO 29005KT CAVOK 19/10 Q1013 NOSIG
LHDC 211945Z AUTO 31006KT CAVOK 20/10 Q1013 NOSIG
LHDC 211915Z AUTO 29007KT CAVOK 21/10 Q1013 NOSIG
LHDC 211845Z AUTO 29008KT 260V320 CAVOK 22/09 Q1012 NOSIG
LHDC 211815Z AUTO 29011KT 260V330 CAVOK 23/08 Q1012 NOSIG
LHDC 211745Z AUTO 29010KT 250V340 CAVOK 24/08 Q1012 NOSIG
LHDC 211715Z AUTO 29012KT 250V330 CAVOK 25/07 Q1012 NOSIG
LHDC 211645Z AUTO 29014G27KT 250V340 CAVOK 26/06 Q1012 NOSIG
LHDC 211615Z AUTO 29019KT 250V320 CAVOK 26/06 Q1012 NOSIG
TAF LHDC 212015Z 2121/2206 30007KT CAVOK 
     BECMG 2121/2124 01004KT